Terminal Aerodrome Forecast
Issued by NWS Brownsville, TX

Home | Current Version | Previous Version | Text Only | Print | Product List | Glossary On
Versions: 1 2 3 4 5 6 7 8 9 10 11 12 13
000
FTUS44 KBRO 010530
TAFBRO
TAF
KBRO 010530Z 0106/0206 14006KT P6SM VCSH SCT050 BKN100
      TEMPO 0106/0109 5SM -RA BR BKN050
     FM011200 18010KT P6SM SCT035 BKN040
     FM011700 20012KT P6SM SCT040 SCT100
     FM020300 35005KT 6SM BR OVC040=

USA.gov is the U.S. government's official web portal to all federal, state and local government web resources and services.